Time;durP1;ratioP1;P1;durP2;ratioP2;P2;SDS_P1;SDS_P2;PMS_P1;PMS_P2;Temp;Humidity;BMP_temperature;BMP_pressure;BME280_temperature;BME280_humidity;BME280_pressure;Samples;Min_cycle;Max_cycle;Signal;HPM_P1;HPM_P2
2022/04/21 00:00:14;;;;;;;10.73;6.78;;;6.00;55.60;;;;;;5052939;28;20032;-65
2022/04/21 00:02:41;;;;;;;10.82;7.45;;;5.90;55.60;;;;;;5057781;28;20040;-65
2022/04/21 00:05:11;;;;;;;10.32;7.30;;;5.90;55.60;;;;;;5054047;28;20666;-65
2022/04/21 00:07:37;;;;;;;11.30;7.35;;;5.90;55.60;;;;;;5054499;28;20039;-65
2022/04/21 00:10:04;;;;;;;12.25;7.40;;;5.80;55.70;;;;;;5055446;28;20024;-66
2022/04/21 00:12:30;;;;;;;9.73;7.25;;;5.80;55.80;;;;;;5056577;28;20033;-65
2022/04/21 00:14:56;;;;;;;15.55;7.75;;;5.70;55.80;;;;;;5056957;28;20658;-65
2022/04/21 00:17:22;;;;;;;11.73;7.90;;;5.60;55.90;;;;;;5056233;28;20115;-66
2022/04/21 00:19:48;;;;;;;10.90;7.53;;;5.60;56.00;;;;;;5057693;28;20067;-65
2022/04/21 00:24:57;;;;;;;10.90;7.43;;;5.50;56.40;;;;;;5057315;28;20040;-64
2022/04/21 00:27:23;;;;;;;9.70;7.03;;;5.40;56.40;;;;;;5056201;28;20026;-65
2022/04/21 00:29:48;;;;;;;16.95;8.02;;;5.40;56.50;;;;;;5057251;28;20435;-65
2022/04/21 00:32:14;;;;;;;11.05;7.55;;;5.40;56.60;;;;;;5055017;28;20044;-65
2022/04/21 00:34:40;;;;;;;11.43;7.95;;;5.30;57.30;;;;;;5057232;28;20213;-65
2022/04/21 00:37:05;;;;;;;11.60;8.20;;;5.30;56.80;;;;;;5056973;28;20145;-65
2022/04/21 00:39:32;;;;;;;11.18;7.65;;;5.20;56.90;;;;;;5057599;28;20029;-65
2022/04/21 00:42:02;;;;;;;11.48;7.90;;;5.20;57.00;;;;;;5058231;28;20033;-65
2022/04/21 00:44:29;;;;;;;12.50;7.97;;;5.10;57.30;;;;;;5056123;28;20483;-65
2022/04/21 00:46:58;;;;;;;11.30;7.43;;;5.10;57.30;;;;;;5055034;28;20040;-66
2022/04/21 00:49:26;;;;;;;11.75;8.20;;;5.00;57.40;;;;;;5056429;28;20158;-65
2022/04/21 00:51:54;;;;;;;13.20;7.60;;;5.00;57.60;;;;;;5056745;28;20040;-65
2022/04/21 00:54:19;;;;;;;11.73;7.85;;;5.00;57.70;;;;;;5055864;28;20611;-65
2022/04/21 00:56:46;;;;;;;14.80;7.55;;;4.90;57.70;;;;;;5056655;28;20139;-63
2022/04/21 00:59:12;;;;;;;11.60;8.15;;;4.90;57.80;;;;;;5057091;28;20040;-65
2022/04/21 01:04:26;;;;;;;12.55;7.70;;;4.90;58.30;;;;;;5056488;28;20040;-65
2022/04/21 01:06:53;;;;;;;13.57;7.55;;;4.80;58.00;;;;;;5055300;28;20078;-65
2022/04/21 01:09:18;;;;;;;12.50;7.75;;;4.80;58.10;;;;;;5054875;28;20461;-65
2022/04/21 01:11:45;;;;;;;11.35;7.90;;;4.80;58.30;;;;;;5055593;28;20135;-65
2022/04/21 01:14:13;;;;;;;13.05;7.72;;;4.70;58.30;;;;;;5054448;28;20032;-65
2022/04/21 01:16:39;;;;;;;13.43;8.05;;;4.70;58.50;;;;;;5056346;28;20040;-65
2022/04/21 01:19:04;;;;;;;11.35;7.38;;;4.70;58.50;;;;;;5053522;28;20029;-65
2022/04/21 01:21:30;;;;;;;13.13;7.53;;;4.60;58.60;;;;;;5053857;28;20449;-64
2022/04/21 01:23:55;;;;;;;11.07;7.38;;;4.60;58.60;;;;;;5055873;28;20024;-65
2022/04/21 01:26:22;;;;;;;13.02;7.97;;;4.60;58.80;;;;;;5052918;28;20086;-65
2022/04/21 01:28:49;;;;;;;16.33;9.63;;;4.60;58.70;;;;;;5035721;28;20040;-65
2022/04/21 01:31:24;;;;;;;48.38;18.70;;;4.60;58.80;;;;;;5021471;28;20039;-64
2022/04/21 01:33:50;;;;;;;56.78;21.33;;;4.60;59.00;;;;;;5035194;28;20182;-65
2022/04/21 01:36:16;;;;;;;65.55;22.48;;;4.50;58.50;;;;;;5034762;28;20114;-65
2022/04/21 01:41:25;;;;;;;49.88;17.15;;;4.50;58.70;;;;;;5052362;28;20040;-65
2022/04/21 01:43:51;;;;;;;33.38;13.50;;;4.50;58.70;;;;;;5055300;28;20024;-65
2022/04/21 01:46:16;;;;;;;28.00;11.55;;;4.40;58.80;;;;;;5054638;28;20502;-66
2022/04/21 01:48:42;;;;;;;16.30;8.65;;;4.40;58.90;;;;;;5054811;28;20513;-64
2022/04/21 01:51:08;;;;;;;15.65;8.40;;;4.40;59.00;;;;;;5053669;28;20504;-65
2022/04/21 01:53:33;;;;;;;11.80;7.28;;;4.40;59.00;;;;;;5051611;28;20072;-65
2022/04/21 01:56:00;;;;;;;11.43;7.90;;;4.40;59.10;;;;;;5053543;28;20045;-65
2022/04/21 01:58:26;;;;;;;11.13;7.03;;;4.40;59.20;;;;;;5050777;28;20029;-65
2022/04/21 02:00:51;;;;;;;19.73;8.27;;;4.30;59.20;;;;;;5054851;28;20049;-65
2022/04/21 02:03:17;;;;;;;12.30;7.53;;;4.30;59.30;;;;;;5056427;28;20064;-65
2022/04/21 02:05:43;;;;;;;13.57;7.28;;;4.20;59.50;;;;;;5053319;28;20028;-65
2022/04/21 02:08:09;;;;;;;11.93;7.30;;;4.20;59.60;;;;;;5052909;28;20072;-65
2022/04/21 02:10:34;;;;;;;10.63;7.07;;;4.20;59.80;;;;;;5053526;28;20032;-63
2022/04/21 02:13:00;;;;;;;10.57;7.13;;;4.10;59.90;;;;;;5053805;28;20437;-65
2022/04/21 02:15:26;;;;;;;11.30;7.65;;;4.10;59.90;;;;;;5055052;28;20195;-65
2022/04/21 02:17:52;;;;;;;10.90;7.47;;;4.10;60.00;;;;;;5056750;28;20299;-65
2022/04/21 02:20:18;;;;;;;10.05;7.65;;;4.10;60.20;;;;;;5054023;28;20033;-65
2022/04/21 02:22:44;;;;;;;12.75;7.07;;;4.10;60.20;;;;;;5057450;28;20492;-65
2022/04/21 02:25:12;;;;;;;9.30;7.05;;;4.10;60.20;;;;;;5053967;28;20025;-65
2022/04/21 02:27:41;;;;;;;9.60;7.40;;;4.10;60.20;;;;;;5054999;28;20026;-65
2022/04/21 02:30:08;;;;;;;10.73;6.88;;;4.10;60.30;;;;;;5054945;28;20059;-65
2022/04/21 02:32:34;;;;;;;9.95;7.40;;;4.10;60.20;;;;;;5054673;28;20716;-65
2022/04/21 02:35:00;;;;;;;12.00;7.15;;;4.10;60.30;;;;;;5054704;28;20143;-65
2022/04/21 02:37:26;;;;;;;11.48;6.95;;;4.10;60.40;;;;;;5052668;28;20040;-65
2022/04/21 02:39:51;;;;;;;10.35;6.88;;;4.00;60.40;;;;;;5053796;28;20028;-65
2022/04/21 02:42:19;;;;;;;9.77;6.93;;;4.00;60.60;;;;;;5054140;28;20624;-65
2022/04/21 02:44:45;;;;;;;11.30;7.05;;;4.00;60.70;;;;;;5055813;28;20047;-65
2022/04/21 02:47:11;;;;;;;10.40;7.43;;;4.00;60.80;;;;;;5058907;28;20037;-65
2022/04/21 02:49:37;;;;;;;12.13;6.78;;;4.00;61.70;;;;;;5058042;28;20048;-65
2022/04/21 02:52:05;;;;;;;9.85;7.18;;;4.00;61.00;;;;;;5056150;28;20489;-65
2022/04/21 02:57:22;;;;;;;17.38;7.13;;;3.90;61.00;;;;;;5058424;28;20035;-61
2022/04/21 02:59:50;;;;;;;10.88;7.70;;;3.90;61.10;;;;;;5057752;28;20144;-65
2022/04/21 03:02:17;;;;;;;10.40;6.82;;;3.90;61.30;;;;;;5057916;28;20115;-64
2022/04/21 03:04:43;;;;;;;10.95;7.07;;;3.90;61.30;;;;;;5055999;28;20040;-65
2022/04/21 03:07:08;;;;;;;9.55;6.43;;;3.80;61.30;;;;;;5057920;28;20035;-64
2022/04/21 03:09:34;;;;;;;13.63;7.53;;;3.80;61.30;;;;;;5055332;28;20509;-65
2022/04/21 03:12:02;;;;;;;10.55;6.90;;;3.90;61.40;;;;;;5054910;28;20048;-65
2022/04/21 03:14:27;;;;;;;14.77;7.28;;;3.80;61.50;;;;;;5058391;28;20522;-64
2022/04/21 03:16:53;;;;;;;10.15;6.38;;;3.80;61.50;;;;;;5057193;28;20047;-65
2022/04/21 03:19:19;;;;;;;11.80;7.05;;;3.80;61.60;;;;;;5058201;28;20041;-65
2022/04/21 03:24:29;;;;;;;10.30;6.68;;;3.80;61.80;;;;;;5057372;28;20035;-65
2022/04/21 03:26:55;;;;;;;10.05;6.43;;;3.80;61.80;;;;;;5058559;28;20032;-65
2022/04/21 03:29:21;;;;;;;9.57;6.93;;;3.70;61.80;;;;;;5058116;28;20108;-64
2022/04/21 03:31:48;;;;;;;12.13;7.07;;;3.70;61.80;;;;;;5056325;28;20098;-65
2022/04/21 03:34:17;;;;;;;9.75;7.10;;;3.70;62.00;;;;;;5055773;28;20397;-64
2022/04/21 03:36:47;;;;;;;10.30;6.65;;;3.70;62.20;;;;;;5057486;28;20116;-65
2022/04/21 03:39:13;;;;;;;11.60;7.15;;;3.60;62.00;;;;;;5057470;28;20049;-64
2022/04/21 03:41:38;;;;;;;10.30;7.03;;;3.60;62.10;;;;;;5056050;28;20477;-65
2022/04/21 03:44:07;;;;;;;10.02;6.78;;;3.60;62.20;;;;;;5056193;28;20525;-65
2022/04/21 03:46:33;;;;;;;10.25;6.22;;;3.60;62.60;;;;;;5056026;28;20064;-65
2022/04/21 03:48:59;;;;;;;12.10;6.45;;;3.60;62.30;;;;;;5056811;28;20042;-64
2022/04/21 03:51:27;;;;;;;9.60;6.18;;;3.60;62.30;;;;;;5055036;28;20037;-64
2022/04/21 03:53:54;;;;;;;16.27;7.45;;;3.70;62.50;;;;;;5057785;28;20032;-64
2022/04/21 03:56:21;;;;;;;15.90;6.97;;;3.70;62.60;;;;;;5057475;28;20040;-65
2022/04/21 03:58:46;;;;;;;9.00;6.40;;;3.60;62.50;;;;;;5057754;28;20496;-65
2022/04/21 04:01:12;;;;;;;9.23;6.68;;;3.60;62.60;;;;;;5053995;28;20048;-65
2022/04/21 04:03:38;;;;;;;12.57;7.40;;;3.60;62.50;;;;;;5057864;28;20044;-64
2022/04/21 04:06:04;;;;;;;14.35;7.70;;;3.60;62.80;;;;;;5055890;28;20032;-65
2022/04/21 04:11:13;;;;;;;13.15;6.82;;;3.50;62.80;;;;;;5053903;28;20381;-65
2022/04/21 04:13:39;;;;;;;9.15;6.88;;;3.50;62.70;;;;;;5055553;28;20067;-65
2022/04/21 04:16:04;;;;;;;8.07;5.97;;;3.50;63.10;;;;;;5056779;28;20511;-65
2022/04/21 04:18:30;;;;;;;11.63;6.85;;;3.50;63.20;;;;;;5055026;28;20059;-64
2022/04/21 04:20:56;;;;;;;12.45;7.15;;;3.50;63.30;;;;;;5056251;28;20102;-64
2022/04/21 04:23:22;;;;;;;9.80;7.18;;;3.60;63.50;;;;;;5056529;28;20402;-64
2022/04/21 04:25:48;;;;;;;11.63;6.63;;;3.60;63.70;;;;;;5058708;28;20588;-65
2022/04/21 04:28:14;;;;;;;13.15;6.88;;;3.60;63.80;;;;;;5057064;28;20413;-64
2022/04/21 04:30:40;;;;;;;13.40;7.13;;;3.60;63.90;;;;;;5057766;28;20045;-64
2022/04/21 04:33:06;;;;;;;16.27;7.45;;;3.50;63.90;;;;;;5058278;28;20155;-65
2022/04/21 04:35:32;;;;;;;13.98;7.18;;;3.50;63.90;;;;;;5056733;28;20037;-65
2022/04/21 04:37:58;;;;;;;11.30;6.93;;;3.50;63.90;;;;;;5057725;28;20025;-65
2022/04/21 04:40:25;;;;;;;14.25;7.70;;;3.60;64.00;;;;;;5058027;28;20025;-64
2022/04/21 04:42:53;;;;;;;12.77;7.45;;;3.60;64.00;;;;;;5056431;28;20028;-65
2022/04/21 04:48:04;;;;;;;11.95;7.55;;;3.60;64.00;;;;;;5059087;28;20096;-63
2022/04/21 04:50:30;;;;;;;12.20;7.88;;;3.60;63.90;;;;;;5056102;28;20037;-65
2022/04/21 04:52:57;;;;;;;13.65;7.85;;;3.60;63.90;;;;;;5057441;28;20028;-64
2022/04/21 04:55:23;;;;;;;13.20;7.57;;;3.60;63.90;;;;;;5054408;28;20025;-65
2022/04/21 04:57:50;;;;;;;14.02;7.88;;;3.50;64.00;;;;;;5057945;28;20082;-64
2022/04/21 05:00:16;;;;;;;14.13;7.60;;;3.60;64.20;;;;;;5059990;28;20056;-64
2022/04/21 05:02:41;;;;;;;14.73;8.15;;;3.60;64.40;;;;;;5057266;28;20039;-65
2022/04/21 05:05:08;;;;;;;18.20;8.63;;;3.60;64.40;;;;;;5055637;28;20029;-64
2022/04/21 05:07:35;;;;;;;13.43;7.88;;;3.60;64.60;;;;;;5055402;28;20035;-64
2022/04/21 05:10:01;;;;;;;15.07;8.05;;;3.60;64.60;;;;;;5055445;28;20028;-65
2022/04/21 05:12:27;;;;;;;15.25;8.07;;;3.60;64.60;;;;;;5056793;28;20044;-64
2022/04/21 05:14:52;;;;;;;14.85;7.95;;;3.60;64.70;;;;;;5055244;28;20556;-65
2022/04/21 05:17:18;;;;;;;17.05;8.60;;;3.70;64.70;;;;;;5056551;28;20437;-65
2022/04/21 05:19:45;;;;;;;15.52;9.30;;;3.70;64.90;;;;;;5054965;28;20404;-66
2022/04/21 05:22:13;;;;;;;16.00;9.50;;;3.70;65.10;;;;;;5057856;28;20555;-65
2022/04/21 05:24:40;;;;;;;18.13;9.77;;;3.80;65.40;;;;;;5055691;28;20032;-64
2022/04/21 05:27:06;;;;;;;18.83;9.80;;;3.80;65.30;;;;;;5056810;28;20544;-65
2022/04/21 05:32:20;;;;;;;16.92;10.05;;;3.90;65.30;;;;;;5056448;28;20044;-64
2022/04/21 05:34:46;;;;;;;12.77;8.75;;;4.00;65.30;;;;;;5055055;28;20109;-65
2022/04/21 05:37:13;;;;;;;14.50;9.70;;;4.00;65.80;;;;;;5053346;28;20025;-65
2022/04/21 05:39:38;;;;;;;14.02;9.65;;;4.20;66.10;;;;;;5056109;28;20462;-65
2022/04/21 05:42:06;;;;;;;13.30;9.48;;;4.30;66.60;;;;;;5057420;28;20389;-64
2022/04/21 05:44:32;;;;;;;13.55;9.88;;;4.40;67.00;;;;;;5053817;28;20032;-63
2022/04/21 05:46:58;;;;;;;15.27;10.43;;;4.50;67.00;;;;;;5052795;28;20037;-65
2022/04/21 05:49:24;;;;;;;14.95;10.35;;;4.60;67.20;;;;;;5056531;28;20047;-64
2022/04/21 05:51:54;;;;;;;18.08;10.68;;;4.70;67.60;;;;;;5055065;28;20044;-65
2022/04/21 05:54:20;;;;;;;12.80;10.00;;;4.90;67.70;;;;;;5056524;28;20056;-65
2022/04/21 05:56:46;;;;;;;13.63;10.43;;;5.00;67.40;;;;;;5055183;28;20039;-64
2022/04/21 05:59:12;;;;;;;17.55;11.07;;;5.10;67.50;;;;;;5056233;28;20040;-65
2022/04/21 06:01:37;;;;;;;14.15;10.63;;;5.30;68.20;;;;;;5054286;28;20040;-64
2022/04/21 06:04:03;;;;;;;16.42;10.77;;;5.40;68.00;;;;;;5056271;28;20139;-64
2022/04/21 06:06:29;;;;;;;12.70;10.10;;;5.50;67.50;;;;;;5054437;28;20037;-64
2022/04/21 06:08:54;;;;;;;15.43;10.77;;;5.60;67.50;;;;;;5056183;28;20036;-65
2022/04/21 06:11:20;;;;;;;14.07;11.15;;;5.70;67.50;;;;;;5054800;28;20074;-65
2022/04/21 06:13:46;;;;;;;17.00;10.85;;;5.80;68.10;;;;;;5054815;28;20115;-64
2022/04/21 06:16:12;;;;;;;16.67;11.50;;;5.90;67.30;;;;;;5053752;28;20505;-65
2022/04/21 06:18:38;;;;;;;14.90;11.88;;;6.00;67.40;;;;;;5056733;28;20040;-65
2022/04/21 06:21:05;;;;;;;16.05;11.38;;;6.10;67.20;;;;;;5056169;28;20062;-64
2022/04/21 06:23:31;;;;;;;13.57;10.75;;;6.20;67.20;;;;;;5060830;28;20035;-63
2022/04/21 06:25:59;;;;;;;14.77;10.82;;;6.30;66.60;;;;;;5060669;28;20094;-64
2022/04/21 06:28:28;;;;;;;14.27;11.18;;;6.40;66.60;;;;;;5060379;28;20039;-64
2022/04/21 06:30:53;;;;;;;15.02;11.15;;;6.50;67.10;;;;;;5059683;28;20418;-65
2022/04/21 06:33:19;;;;;;;17.95;10.82;;;6.60;66.90;;;;;;5057815;28;20138;-65
2022/04/21 06:35:45;;;;;;;11.98;9.98;;;6.80;66.50;;;;;;5057009;28;20035;-64
2022/04/21 06:38:11;;;;;;;12.65;9.73;;;6.80;67.10;;;;;;5058415;28;20037;-64
2022/04/21 06:40:37;;;;;;;11.85;8.88;;;6.90;66.20;;;;;;5058132;28;20071;-64
2022/04/21 06:48:01;;;;;;;13.07;10.13;;;7.00;65.80;;;;;;5057488;28;20020;-62
2022/04/21 06:48:34;;;;;;;18.85;9.38;;;7.30;65.30;;;;;;5059123;28;20516;-64
2022/04/21 06:50:59;;;;;;;12.35;8.98;;;7.40;65.20;;;;;;5059863;28;20048;-65
2022/04/21 06:53:25;;;;;;;13.50;8.93;;;7.50;65.00;;;;;;5057964;28;20409;-64
2022/04/21 06:55:50;;;;;;;12.98;9.57;;;7.60;66.20;;;;;;5060888;28;20662;-65
2022/04/21 06:58:16;;;;;;;13.80;9.15;;;7.70;64.90;;;;;;5056944;28;20593;-65
2022/04/21 07:00:41;;;;;;;11.55;8.63;;;7.80;64.60;;;;;;5058359;28;20032;-65
2022/04/21 07:03:08;;;;;;;10.40;8.32;;;7.90;64.30;;;;;;5060833;28;20056;-65
2022/04/21 07:05:34;;;;;;;10.95;8.15;;;8.00;63.80;;;;;;5059454;28;20040;-65
2022/04/21 07:08:00;;;;;;;12.57;7.80;;;8.20;63.50;;;;;;5059845;28;20021;-65
2022/04/21 07:10:26;;;;;;;11.88;7.82;;;8.30;63.30;;;;;;5057679;28;20040;-64
2022/04/21 07:12:51;;;;;;;12.70;8.27;;;8.40;63.10;;;;;;5065756;28;20025;-65
2022/04/21 07:15:17;;;;;;;10.20;7.95;;;8.50;62.90;;;;;;5059059;28;20028;-65
2022/04/21 07:17:43;;;;;;;10.80;8.07;;;8.60;62.60;;;;;;5059655;28;20107;-64
2022/04/21 07:20:12;;;;;;;10.98;7.80;;;8.70;62.40;;;;;;5060564;28;20029;-65
2022/04/21 07:22:38;;;;;;;11.82;8.63;;;8.80;62.30;;;;;;5058943;28;20047;-64
2022/04/21 07:25:06;;;;;;;8.95;7.93;;;9.00;62.20;;;;;;5059738;28;20035;-64
2022/04/21 07:27:32;;;;;;;10.25;8.18;;;9.10;61.90;;;;;;5058418;28;20643;-65
2022/04/21 07:29:58;;;;;;;9.85;7.57;;;9.20;61.50;;;;;;5059803;28;20517;-65
2022/04/21 07:32:24;;;;;;;11.45;8.23;;;9.30;61.40;;;;;;5056836;28;20044;-64
2022/04/21 07:34:49;;;;;;;10.27;8.10;;;9.40;61.20;;;;;;5058255;28;20126;-65
2022/04/21 07:37:15;;;;;;;11.20;7.75;;;9.50;61.00;;;;;;5058440;28;20037;-64
2022/04/21 07:39:42;;;;;;;9.27;7.90;;;9.60;60.70;;;;;;5057460;28;20462;-64
2022/04/21 07:42:08;;;;;;;10.90;8.07;;;9.70;60.50;;;;;;5060006;28;20166;-65
2022/04/21 07:44:35;;;;;;;11.02;7.97;;;9.80;60.10;;;;;;5057347;28;20105;-64
2022/04/21 07:47:01;;;;;;;9.88;8.32;;;9.80;59.80;;;;;;5058798;28;20048;-65
2022/04/21 07:49:46;;;;;;;9.95;8.32;;;10.00;59.70;;;;;;5057939;28;20043;-64
2022/04/21 07:54:56;;;;;;;9.48;7.82;;;10.10;59.30;;;;;;5054758;28;20306;-65
2022/04/21 07:57:22;;;;;;;13.18;8.30;;;10.20;59.80;;;;;;5058873;28;20025;-64
2022/04/21 07:59:48;;;;;;;10.50;8.27;;;10.30;59.00;;;;;;5057370;28;20036;-65
2022/04/21 08:02:16;;;;;;;11.27;8.07;;;10.40;58.90;;;;;;5058397;28;20510;-65
2022/04/21 08:04:43;;;;;;;10.00;8.05;;;10.50;58.80;;;;;;5056512;28;20185;-65
2022/04/21 08:07:09;;;;;;;14.77;9.00;;;10.60;58.60;;;;;;5059332;28;20048;-65
2022/04/21 08:09:35;;;;;;;11.13;8.38;;;10.70;58.40;;;;;;5058251;28;20033;-65
2022/04/21 08:12:00;;;;;;;9.75;8.15;;;10.80;58.40;;;;;;5056020;28;20041;-65
2022/04/21 08:14:26;;;;;;;10.32;8.40;;;10.90;58.50;;;;;;5059142;28;20437;-65
2022/04/21 08:16:54;;;;;;;13.18;7.90;;;10.90;58.50;;;;;;5059482;28;20029;-65
2022/04/21 08:19:21;;;;;;;10.10;7.97;;;11.00;58.30;;;;;;5059041;28;20063;-64
2022/04/21 08:21:49;;;;;;;9.25;7.97;;;11.10;58.10;;;;;;5056039;28;20402;-65
2022/04/21 08:32:41;;;;;;;16.77;8.60;;;11.50;57.10;;;;;;5056768;28;20052;-64
2022/04/21 08:35:09;;;;;;;12.02;8.75;;;11.60;57.10;;;;;;5057183;28;20435;-65
2022/04/21 08:37:35;;;;;;;15.95;9.55;;;11.70;57.00;;;;;;5057551;28;20055;-65
2022/04/21 08:40:06;;;;;;;11.93;9.40;;;11.80;56.90;;;;;;5057623;28;20039;-65
2022/04/21 08:42:38;;;;;;;12.88;9.82;;;11.90;57.00;;;;;;5057739;28;20498;-64
2022/04/21 08:45:05;;;;;;;12.05;9.63;;;12.00;56.40;;;;;;5058167;28;20037;-65
2022/04/21 08:47:32;;;;;;;9.88;8.85;;;12.00;56.40;;;;;;5056420;28;20497;-65
2022/04/21 08:50:04;;;;;;;11.85;10.27;;;12.10;56.60;;;;;;5057493;28;20036;-65
2022/04/21 08:52:32;;;;;;;12.63;10.10;;;12.20;56.40;;;;;;5057809;28;20029;-65
2022/04/21 08:54:57;;;;;;;14.18;9.55;;;12.20;56.40;;;;;;5055520;28;20048;-65
2022/04/21 08:57:23;;;;;;;11.50;9.15;;;12.20;56.20;;;;;;5058371;28;20408;-65
2022/04/21 08:59:49;;;;;;;11.27;9.32;;;12.30;56.10;;;;;;5056544;28;20086;-64
2022/04/21 09:02:14;;;;;;;11.18;8.52;;;12.40;56.10;;;;;;5058276;28;20524;-66
2022/04/21 09:04:43;;;;;;;10.02;8.50;;;12.40;55.80;;;;;;5056005;28;20119;-65
2022/04/21 09:07:16;;;;;;;10.98;8.65;;;12.50;55.40;;;;;;5057776;28;20060;-65
2022/04/21 09:10:01;;;;;;;11.18;8.85;;;12.60;54.90;;;;;;5056910;28;20465;-65
2022/04/21 09:12:27;;;;;;;9.15;7.72;;;12.60;54.50;;;;;;5056273;28;20455;-64
2022/04/21 09:14:53;;;;;;;11.18;8.77;;;12.70;54.80;;;;;;5058110;28;20048;-65
2022/04/21 09:17:18;;;;;;;10.63;8.48;;;12.80;54.30;;;;;;5058473;28;20029;-65
2022/04/21 09:19:56;;;;;;;15.90;8.70;;;12.80;54.20;;;;;;5058369;28;20409;-65
2022/04/21 09:22:22;;;;;;;10.80;8.23;;;12.90;54.20;;;;;;5058572;28;20052;-64
2022/04/21 09:24:52;;;;;;;8.90;8.00;;;13.00;53.90;;;;;;5057598;28;20548;-65
2022/04/21 09:27:17;;;;;;;12.60;8.30;;;13.10;53.70;;;;;;5057769;28;20036;-65
2022/04/21 09:29:43;;;;;;;14.13;8.43;;;13.10;53.80;;;;;;5059178;28;20037;-65
2022/04/21 09:32:09;;;;;;;11.50;9.90;;;13.20;53.80;;;;;;5055741;28;20409;-65
2022/04/21 09:34:37;;;;;;;10.82;9.73;;;13.30;53.50;;;;;;5057135;28;20119;-65
2022/04/21 09:37:07;;;;;;;11.05;9.25;;;13.30;53.60;;;;;;5056793;28;20058;-64
2022/04/21 09:39:41;;;;;;;11.45;8.93;;;13.40;54.00;;;;;;5054817;28;20024;-65
2022/04/21 09:42:07;;;;;;;12.10;9.80;;;13.40;53.80;;;;;;5057249;28;20448;-65
2022/04/21 09:47:20;;;;;;;12.70;9.55;;;13.60;53.30;;;;;;5059052;28;20416;-66
2022/04/21 09:49:46;;;;;;;12.10;8.93;;;13.60;53.40;;;;;;5057560;28;20407;-65
2022/04/21 09:52:12;;;;;;;11.07;9.43;;;13.70;53.40;;;;;;5057922;28;20032;-65
2022/04/21 09:54:40;;;;;;;11.65;10.32;;;13.80;54.00;;;;;;5056095;28;20036;-64
2022/04/21 09:57:07;;;;;;;11.35;9.48;;;13.80;52.30;;;;;;5056763;28;20055;-65
2022/04/21 09:59:35;;;;;;;12.70;9.18;;;13.80;52.60;;;;;;5058245;28;20025;-65
2022/04/21 10:02:02;;;;;;;10.43;8.38;;;13.90;53.00;;;;;;5057024;28;20041;-66
2022/04/21 10:04:29;;;;;;;10.02;7.75;;;14.00;52.80;;;;;;5055741;28;20037;-65
2022/04/21 10:06:56;;;;;;;9.43;7.70;;;14.00;52.60;;;;;;5057176;28;20045;-65
2022/04/21 10:09:23;;;;;;;10.88;8.07;;;14.10;52.60;;;;;;5055446;28;20092;-65
2022/04/21 10:11:51;;;;;;;9.35;8.00;;;14.20;52.20;;;;;;5053420;28;20037;-65
2022/04/21 10:14:17;;;;;;;10.77;8.07;;;14.40;52.00;;;;;;5055349;28;20025;-65
2022/04/21 10:16:43;;;;;;;11.05;8.43;;;14.40;51.50;;;;;;5058301;28;20577;-65
2022/04/21 10:19:10;;;;;;;8.65;7.70;;;14.50;51.10;;;;;;5057583;28;20486;-66
2022/04/21 10:21:55;;;;;;;8.77;7.72;;;14.60;51.30;;;;;;5054481;28;22656;-64
2022/04/21 10:24:25;;;;;;;9.15;8.07;;;14.60;50.60;;;;;;5057497;28;20036;-64
2022/04/21 10:26:51;;;;;;;8.23;7.43;;;14.70;49.50;;;;;;5055405;28;20037;-63
2022/04/21 10:29:17;;;;;;;7.90;7.03;;;14.70;50.00;;;;;;5057799;28;20036;-65
2022/04/21 10:31:57;;;;;;;7.63;6.80;;;14.70;50.20;;;;;;5055956;28;20390;-65
2022/04/21 10:34:45;;;;;;;8.05;7.28;;;14.80;50.00;;;;;;5053764;28;20025;-63
2022/04/21 10:37:20;;;;;;;8.02;7.22;;;14.80;48.90;;;;;;5055544;28;20520;-65
2022/04/21 10:40:03;;;;;;;7.97;6.85;;;14.90;49.20;;;;;;5054735;28;20033;-66
2022/04/21 10:42:29;;;;;;;8.68;7.70;;;14.90;49.20;;;;;;5057985;28;20052;-65
2022/04/21 10:44:55;;;;;;;8.73;7.68;;;14.90;48.90;;;;;;5057615;28;20064;-65
2022/04/21 10:47:35;;;;;;;8.40;6.95;;;15.00;48.40;;;;;;5056756;28;20037;-66
2022/04/21 10:50:00;;;;;;;11.13;6.90;;;15.00;48.50;;;;;;5057109;28;20037;-65
2022/04/21 10:57:48;;;;;;;7.03;6.32;;;15.10;48.20;;;;;;5058207;28;20043;-66
2022/04/21 11:00:34;;;;;;;8.55;7.65;;;15.10;48.50;;;;;;5057591;28;20032;-65
2022/04/21 11:03:00;;;;;;;9.15;7.82;;;15.10;47.50;;;;;;5055366;28;20497;-65
2022/04/21 11:05:30;;;;;;;9.75;7.35;;;15.20;47.30;;;;;;5056709;28;20123;-65
2022/04/21 11:07:58;;;;;;;7.70;6.80;;;15.20;47.60;;;;;;5058557;28;20037;-65
2022/04/21 11:10:39;;;;;;;7.35;6.63;;;15.20;47.80;;;;;;5065133;28;20449;-65
2022/04/21 11:13:08;;;;;;;8.77;7.13;;;15.30;47.40;;;;;;5059673;28;20025;-65
2022/04/21 11:15:37;;;;;;;7.38;6.55;;;15.30;47.60;;;;;;5060892;28;20064;-65
2022/04/21 11:18:09;;;;;;;7.88;6.65;;;15.30;48.20;;;;;;5059063;28;20032;-65
2022/04/21 11:20:46;;;;;;;8.73;7.80;;;15.40;48.00;;;;;;5059846;28;20074;-65
2022/04/21 11:23:44;;;;;;;8.38;7.50;;;15.50;47.10;;;;;;5058142;28;20025;-66
2022/04/21 11:26:10;;;;;;;8.32;7.45;;;15.50;47.00;;;;;;5062710;28;20047;-65
2022/04/21 11:28:41;;;;;;;7.55;6.60;;;15.60;47.90;;;;;;5059827;28;20501;-65
2022/04/21 11:31:06;;;;;;;8.27;7.32;;;15.60;47.50;;;;;;5059444;28;20033;-65
2022/04/21 11:33:32;;;;;;;8.95;7.25;;;15.70;47.40;;;;;;5058256;28;20036;-65
2022/04/21 11:36:11;;;;;;;9.45;7.85;;;15.70;47.30;;;;;;5059645;28;20516;-66
2022/04/21 11:38:41;;;;;;;8.20;7.45;;;15.70;47.00;;;;;;5060457;28;20025;-66
2022/04/21 11:41:09;;;;;;;9.43;7.13;;;15.70;46.90;;;;;;5057820;28;20036;-65
2022/04/21 11:43:35;;;;;;;8.40;7.55;;;15.80;47.60;;;;;;5056244;28;20060;-65
2022/04/21 11:46:12;;;;;;;7.93;7.20;;;15.80;47.50;;;;;;5060178;28;20276;-65
2022/04/21 11:48:40;;;;;;;8.02;7.30;;;15.90;47.40;;;;;;5059579;28;20032;-65
2022/04/21 11:51:07;;;;;;;9.20;7.18;;;15.90;47.40;;;;;;5060618;28;20041;-65
2022/04/21 11:53:37;;;;;;;8.30;7.50;;;15.90;47.60;;;;;;5055997;28;20114;-61
2022/04/21 11:56:08;;;;;;;10.65;7.40;;;16.00;47.50;;;;;;5061020;28;20075;-64
2022/04/21 11:58:41;;;;;;;8.30;7.50;;;16.00;48.00;;;;;;5059643;28;20097;-64
2022/04/21 12:06:51;;;;;;;11.43;8.63;;;16.20;46.60;;;;;;5059375;28;20071;-65
2022/04/21 12:09:19;;;;;;;9.38;8.48;;;16.20;46.80;;;;;;5060449;28;20029;-65
2022/04/21 12:11:53;;;;;;;11.63;8.93;;;16.10;46.80;;;;;;5055486;28;20037;-65
2022/04/21 12:14:19;;;;;;;9.48;8.48;;;16.20;46.90;;;;;;5058490;28;20025;-66
2022/04/21 12:16:52;;;;;;;10.77;8.30;;;16.20;47.00;;;;;;5058769;28;20033;-65
2022/04/21 12:19:18;;;;;;;9.55;7.63;;;16.20;47.00;;;;;;5060587;28;20028;-65
2022/04/21 12:21:54;;;;;;;9.20;8.30;;;16.30;47.10;;;;;;5059263;28;20033;-65
2022/04/21 12:24:20;;;;;;;10.35;8.13;;;16.30;46.80;;;;;;5064697;28;20029;-65
2022/04/21 12:26:53;;;;;;;11.85;8.75;;;16.30;47.10;;;;;;5058963;28;20039;-65
2022/04/21 12:29:21;;;;;;;11.40;8.75;;;16.30;46.90;;;;;;5059112;28;20062;-65
2022/04/21 12:31:49;;;;;;;10.32;9.20;;;16.40;47.00;;;;;;5059207;28;20406;-65
2022/04/21 12:34:27;;;;;;;9.48;8.57;;;16.40;47.00;;;;;;5059547;28;20033;-65
2022/04/21 12:36:55;;;;;;;15.40;8.38;;;16.40;46.40;;;;;;5058896;28;20029;-64
2022/04/21 12:39:22;;;;;;;13.10;8.50;;;16.40;47.10;;;;;;5057632;28;20239;-65
2022/04/21 12:41:48;;;;;;;14.20;8.75;;;16.50;47.20;;;;;;5059399;28;20119;-66
2022/04/21 12:44:15;;;;;;;10.02;9.07;;;16.50;47.40;;;;;;5058986;28;20086;-65
2022/04/21 12:46:41;;;;;;;11.27;9.82;;;16.50;46.90;;;;;;5058349;28;20041;-65
2022/04/21 12:49:07;;;;;;;10.57;8.63;;;16.60;47.00;;;;;;5060130;28;20060;-65
2022/04/21 12:51:33;;;;;;;9.77;8.77;;;16.50;46.60;;;;;;5058603;28;20162;-65
2022/04/21 12:53:59;;;;;;;10.63;9.00;;;16.50;46.70;;;;;;5059025;28;20116;-65
2022/04/21 12:56:34;;;;;;;9.52;8.52;;;16.50;47.00;;;;;;5058015;28;20602;-65
2022/04/21 12:59:00;;;;;;;9.02;8.13;;;16.50;47.00;;;;;;5057990;28;20024;-65
2022/04/21 13:01:26;;;;;;;9.80;8.13;;;16.60;47.40;;;;;;5058648;28;20401;-66
2022/04/21 13:03:52;;;;;;;10.55;8.68;;;16.50;47.50;;;;;;5058463;28;20193;-65
2022/04/21 13:06:28;;;;;;;9.95;8.07;;;16.60;47.30;;;;;;5058263;28;20151;-65
2022/04/21 13:08:55;;;;;;;9.07;8.10;;;16.60;46.90;;;;;;5064430;28;20560;-65
2022/04/21 13:11:21;;;;;;;10.27;8.55;;;16.60;47.40;;;;;;5057699;28;20036;-65
2022/04/21 13:13:46;;;;;;;8.73;7.93;;;16.70;47.70;;;;;;5058044;28;20095;-65
2022/04/21 13:16:12;;;;;;;8.32;7.57;;;16.70;47.60;;;;;;5053909;28;20040;-64
2022/04/21 13:18:38;;;;;;;9.23;7.88;;;16.80;47.80;;;;;;5056380;28;20025;-64
2022/04/21 13:23:47;;;;;;;7.78;7.05;;;16.90;47.40;;;;;;5058731;28;20520;-65
2022/04/21 13:26:13;;;;;;;8.93;8.07;;;17.00;47.40;;;;;;5062609;28;20032;-65
2022/04/21 13:28:39;;;;;;;9.77;8.70;;;17.00;47.20;;;;;;5055294;28;20043;-65
2022/04/21 13:33:48;;;;;;;8.23;7.43;;;17.10;46.90;;;;;;5055400;28;20036;-64
2022/04/21 13:36:14;;;;;;;10.75;8.15;;;17.20;47.10;;;;;;5058831;28;20414;-65
2022/04/21 13:38:39;;;;;;;10.90;7.38;;;17.10;46.90;;;;;;5056794;28;20021;-65
2022/04/21 13:41:05;;;;;;;8.45;7.65;;;17.20;47.00;;;;;;5058132;28;20028;-65